createdAt,value
2022-12-01T00:01:00.307Z,50.45
2022-12-01T00:03:27.087Z,45.88
2022-12-01T00:06:03.732Z,45.05
2022-12-01T00:08:30.176Z,51.50
2022-12-01T00:10:56.476Z,48.05
2022-12-01T00:13:22.917Z,46.33
2022-12-01T00:15:49.298Z,48.70
2022-12-01T00:18:15.618Z,43.92
2022-12-01T00:20:41.932Z,46.88
2022-12-01T00:23:08.218Z,44.13
2022-12-01T00:25:34.652Z,54.30
2022-12-01T00:28:01.041Z,48.65
2022-12-01T00:30:27.340Z,44.90
2022-12-01T00:32:53.610Z,41.85
2022-12-01T00:35:20.002Z,45.90
2022-12-01T00:37:46.333Z,42.72
2022-12-01T00:40:12.893Z,47.67
2022-12-01T00:42:39.121Z,51.08
2022-12-01T00:45:05.724Z,48.60
2022-12-01T00:47:32.490Z,46.20
2022-12-01T00:49:58.756Z,47.05
2022-12-01T00:52:25.044Z,40.83
2022-12-01T00:54:51.313Z,49.63
2022-12-01T00:57:17.705Z,48.20
2022-12-01T00:59:44.077Z,47.65
2022-12-01T01:02:10.748Z,48.65
2022-12-01T01:04:37.562Z,45.65
2022-12-01T01:07:04.064Z,46.70
2022-12-01T01:09:31.002Z,45.30
2022-12-01T01:11:57.371Z,45.75
2022-12-01T01:14:24.129Z,43.70
2022-12-01T01:16:50.589Z,50.33
2022-12-01T01:19:17.522Z,49.15
2022-12-01T01:21:43.780Z,42.10
2022-12-01T01:24:10.216Z,46.53
2022-12-01T01:26:37.291Z,44.47
2022-12-01T01:29:04.563Z,41.08
2022-12-01T01:31:31.289Z,41.75
2022-12-01T01:33:58.153Z,60.50
2022-12-01T01:36:24.946Z,47.05
2022-12-01T01:38:51.692Z,48.67
2022-12-01T01:41:18.622Z,48.58
2022-12-01T01:43:47.975Z,46.97
2022-12-01T01:46:18.554Z,48.90
2022-12-01T01:48:49.674Z,48.85
2022-12-01T01:51:17.261Z,49.03
2022-12-01T01:53:45.316Z,49.28
2022-12-01T01:56:11.793Z,48.03
2022-12-01T01:58:39.010Z,41.30
2022-12-01T02:01:05.901Z,50.90
2022-12-01T02:03:33.288Z,48.17
2022-12-01T02:06:04.668Z,44.38
2022-12-01T02:08:32.778Z,54.13
2022-12-01T02:11:21.991Z,46.40
2022-12-01T02:14:07.176Z,48.22
2022-12-01T02:16:42.882Z,53.70
2022-12-01T02:19:12.014Z,51.35
2022-12-01T02:21:38.284Z,50.38
2022-12-01T02:24:16.739Z,55.28
2022-12-01T02:26:43.777Z,43.58
2022-12-01T02:29:15.360Z,50.88
2022-12-01T02:31:45.897Z,50.35
2022-12-01T02:34:21.621Z,53.20
2022-12-01T02:39:22.275Z,51.70
2022-12-01T02:41:53.595Z,54.70
2022-12-01T02:44:21.870Z,53.92
2022-12-01T02:46:55.302Z,54.15
2022-12-01T02:49:25.970Z,60.00
2022-12-01T02:51:54.054Z,61.00
2022-12-01T02:54:21.191Z,55.67
2022-12-01T02:56:51.227Z,53.00
2022-12-01T02:59:17.522Z,51.00
2022-12-01T03:02:02.458Z,54.53
2022-12-01T03:04:38.257Z,57.08
2022-12-01T03:07:26.968Z,59.42
2022-12-01T03:10:13.738Z,51.65
2022-12-01T03:12:40.018Z,54.05
2022-12-01T03:15:12.845Z,52.85
2022-12-01T03:17:42.997Z,53.88
2022-12-01T03:20:21.434Z,54.83
2022-12-01T03:22:51.852Z,57.78
2022-12-01T03:25:19.071Z,59.45
2022-12-01T03:28:06.706Z,52.90
2022-12-01T03:30:37.225Z,56.97
2022-12-01T03:33:05.003Z,53.97
2022-12-01T03:35:57.475Z,49.92
2022-12-01T03:38:25.286Z,52.28
2022-12-01T03:40:53.983Z,51.47
2022-12-01T03:43:23.401Z,55.60
2022-12-01T03:45:59.016Z,55.90
2022-12-01T03:48:25.812Z,56.95
2022-12-01T03:50:58.307Z,54.10
2022-12-01T03:53:27.276Z,52.10
2022-12-01T03:55:58.779Z,55.92
2022-12-01T03:58:34.349Z,50.17
2022-12-01T04:01:04.331Z,55.50
2022-12-01T04:03:31.208Z,51.95
2022-12-01T04:05:58.019Z,51.58
2022-12-01T04:08:24.290Z,52.72
2022-12-01T04:10:50.711Z,53.40
2022-12-01T04:13:22.855Z,52.92
2022-12-01T04:15:55.357Z,59.33
2022-12-01T04:18:22.023Z,53.78
2022-12-01T04:20:49.362Z,60.20
2022-12-01T04:23:35.708Z,64.18
2022-12-01T04:26:02.896Z,53.53
2022-12-01T04:28:29.448Z,54.70
2022-12-01T04:30:55.780Z,58.60
2022-12-01T04:33:22.103Z,58.72
2022-12-01T04:36:00.520Z,56.95
2022-12-01T04:38:30.814Z,59.13
2022-12-01T04:40:57.470Z,63.17
2022-12-01T04:43:23.751Z,56.33
2022-12-01T04:45:50.157Z,61.75
2022-12-01T04:48:16.466Z,60.78
2022-12-01T04:50:43.176Z,62.45
2022-12-01T04:53:09.474Z,58.70
2022-12-01T04:55:39.277Z,60.03
2022-12-01T04:58:05.954Z,55.72
2022-12-01T05:00:32.499Z,62.88
2022-12-01T05:02:59.783Z,59.63
2022-12-01T05:05:26.314Z,64.70
2022-12-01T05:07:52.626Z,59.35
2022-12-01T05:10:19.084Z,63.65
2022-12-01T05:12:48.298Z,59.90
2022-12-01T05:15:14.584Z,53.42
2022-12-01T05:17:41.050Z,60.72
2022-12-01T05:20:26.375Z,60.25
2022-12-01T05:23:10.884Z,57.08
2022-12-01T05:25:39.074Z,69.93
2022-12-01T05:28:06.426Z,68.97
2022-12-01T05:30:32.819Z,61.88
2022-12-01T05:32:59.116Z,56.72
2022-12-01T05:35:25.453Z,54.20
2022-12-01T05:37:51.775Z,63.08
2022-12-01T05:40:18.021Z,64.13
2022-12-01T05:42:44.368Z,55.97
2022-12-01T05:45:10.909Z,65.40
2022-12-01T05:47:37.168Z,58.33
2022-12-01T05:50:05.809Z,65.05
2022-12-01T05:52:33.278Z,61.92
2022-12-01T05:54:59.555Z,63.20
2022-12-01T05:57:25.866Z,56.17
2022-12-01T05:59:52.109Z,66.93
2022-12-01T06:02:18.477Z,61.42
2022-12-01T06:04:44.820Z,60.35
2022-12-01T06:07:11.073Z,62.72
2022-12-01T06:09:37.369Z,57.80
2022-12-01T06:12:03.771Z,62.13
2022-12-01T06:14:30.039Z,67.00
2022-12-01T06:16:56.434Z,57.10
2022-12-01T06:19:22.766Z,55.63
2022-12-01T06:21:49.092Z,55.63
2022-12-01T06:24:15.382Z,56.22
2022-12-01T06:26:42.300Z,60.00
2022-12-01T06:29:10.748Z,62.75
2022-12-01T06:31:37.086Z,55.28
2022-12-01T06:34:03.477Z,64.50
2022-12-01T06:36:29.760Z,61.70
2022-12-01T06:38:56.034Z,65.60
2022-12-01T06:41:22.605Z,64.90
2022-12-01T06:43:48.942Z,56.33
2022-12-01T06:46:15.298Z,63.95
2022-12-01T06:48:42.307Z,61.97
2022-12-01T06:51:10.774Z,66.25
2022-12-01T06:53:37.327Z,61.20
2022-12-01T06:56:04.526Z,60.92
2022-12-01T06:58:31.793Z,52.85
2022-12-01T07:00:58.966Z,63.47
2022-12-01T07:03:25.352Z,58.70
2022-12-01T07:05:58.662Z,66.00
2022-12-01T07:08:26.104Z,66.07
2022-12-01T07:10:58.291Z,62.72
2022-12-01T07:13:27.669Z,57.67
2022-12-01T07:15:57.893Z,60.70
2022-12-01T07:18:24.240Z,61.45
2022-12-01T07:20:50.569Z,60.78
2022-12-01T07:23:16.839Z,74.20
2022-12-01T07:25:43.414Z,68.38
2022-12-01T07:28:09.732Z,65.25
2022-12-01T07:30:36.109Z,74.47
2022-12-01T07:33:02.409Z,59.53
2022-12-01T07:35:29.040Z,66.00
2022-12-01T07:37:55.896Z,73.05
2022-12-01T07:40:22.724Z,72.97
2022-12-01T07:42:49.169Z,76.18
2022-12-01T07:45:15.481Z,67.80
2022-12-01T07:47:42.402Z,78.63
2022-12-01T07:50:08.783Z,73.25
2022-12-01T07:52:35.012Z,79.95
2022-12-01T07:55:01.250Z,77.13
2022-12-01T07:57:27.564Z,79.15
2022-12-01T07:59:53.927Z,77.50
2022-12-01T08:02:20.420Z,79.28
2022-12-01T08:04:46.721Z,71.45
2022-12-01T08:07:13.489Z,72.57
2022-12-01T08:09:39.826Z,74.78
2022-12-01T08:12:06.416Z,65.75
2022-12-01T08:14:32.733Z,74.65
2022-12-01T08:16:59.066Z,76.00
2022-12-01T08:19:25.822Z,79.78
2022-12-01T08:21:52.066Z,72.72
2022-12-01T08:24:18.318Z,68.05
2022-12-01T08:26:44.649Z,78.35
2022-12-01T08:29:13.616Z,72.15
2022-12-01T08:31:43.442Z,71.75
2022-12-01T08:34:09.768Z,71.45
2022-12-01T08:36:36.283Z,83.75
2022-12-01T08:39:02.758Z,74.15
2022-12-01T08:41:29.429Z,77.18
2022-12-01T08:43:58.889Z,72.43
2022-12-01T08:46:27.063Z,80.78
2022-12-01T08:48:54.985Z,71.57
2022-12-01T08:51:21.427Z,72.55
2022-12-01T08:53:48.806Z,72.40
2022-12-01T08:56:22.873Z,72.30
2022-12-01T08:58:50.255Z,81.00
2022-12-01T09:01:17.170Z,69.97
2022-12-01T09:03:44.143Z,72.03
2022-12-01T09:06:12.446Z,79.68
2022-12-01T09:08:38.769Z,79.93
2022-12-01T09:11:07.141Z,71.35
2022-12-01T09:13:34.279Z,67.38
2022-12-01T09:16:04.816Z,71.95
2022-12-01T09:18:31.861Z,66.68
2022-12-01T09:20:58.886Z,67.57
2022-12-01T09:23:25.816Z,74.63
2022-12-01T09:25:52.702Z,79.05
2022-12-01T09:28:19.372Z,65.20
2022-12-01T09:30:46.420Z,61.45
2022-12-01T09:33:13.521Z,77.82
2022-12-01T09:35:39.892Z,64.70
2022-12-01T09:38:06.329Z,71.93
2022-12-01T09:40:35.275Z,66.82
2022-12-01T09:43:03.502Z,69.85
2022-12-01T09:45:31.645Z,74.15
2022-12-01T09:47:59.596Z,75.10
2022-12-01T09:50:25.879Z,69.07
2022-12-01T09:52:54.006Z,68.15
2022-12-01T09:55:21.853Z,75.18
2022-12-01T09:57:49.069Z,67.00
2022-12-01T10:00:17.331Z,80.43
2022-12-01T10:02:47.725Z,75.05
2022-12-01T10:05:18.096Z,68.10
2022-12-01T10:07:47.979Z,68.80
2022-12-01T10:10:15.536Z,85.18
2022-12-01T10:12:43.543Z,77.55
2022-12-01T10:15:13.108Z,83.50
2022-12-01T10:17:45.402Z,76.65
2022-12-01T10:20:22.660Z,77.07
2022-12-01T10:22:56.377Z,72.57
2022-12-01T10:25:27.756Z,67.68
2022-12-01T10:28:05.020Z,68.35
2022-12-01T10:30:32.190Z,72.65
2022-12-01T10:33:15.588Z,72.47
2022-12-01T10:35:42.532Z,70.70
2022-12-01T10:38:13.799Z,73.22
2022-12-01T10:40:41.372Z,72.78
2022-12-01T10:43:09.744Z,69.55
2022-12-01T10:45:40.015Z,66.28
2022-12-01T10:48:15.033Z,65.53
2022-12-01T10:50:42.588Z,62.60
2022-12-01T10:53:26.279Z,60.80
2022-12-01T10:56:11.197Z,67.90
2022-12-01T10:58:48.005Z,66.90
2022-12-01T11:01:22.006Z,66.95
2022-12-01T11:03:54.190Z,61.17
2022-12-01T11:06:25.545Z,61.42
2022-12-01T11:08:55.150Z,57.00
2022-12-01T11:11:24.265Z,63.45
2022-12-01T11:13:50.903Z,62.65
2022-12-01T11:16:34.478Z,59.72
2022-12-01T11:19:26.824Z,60.22
2022-12-01T11:21:55.466Z,57.63
2022-12-01T11:24:33.793Z,55.55
2022-12-01T11:27:00.687Z,53.72
2022-12-01T11:29:30.155Z,64.63
2022-12-01T11:31:57.408Z,63.50
2022-12-01T11:34:25.762Z,60.50
2022-12-01T11:36:54.459Z,61.20
2022-12-01T11:39:29.073Z,58.10
2022-12-01T11:41:56.624Z,51.58
2022-12-01T11:44:49.557Z,55.15
2022-12-01T11:47:22.817Z,58.83
2022-12-01T11:49:57.927Z,62.42
2022-12-01T11:52:27.480Z,59.00
2022-12-01T11:54:58.183Z,55.25
2022-12-01T11:57:34.138Z,65.45
2022-12-01T12:00:01.669Z,54.75
2022-12-01T12:02:46.465Z,56.45
2022-12-01T12:05:36.247Z,55.75
2022-12-01T12:08:17.898Z,56.05
2022-12-01T12:10:51.776Z,57.22
2022-12-01T12:13:40.725Z,56.88
2022-12-01T12:16:30.284Z,58.15
2022-12-01T12:19:13.826Z,46.45
2022-12-01T12:21:43.492Z,48.17
2022-12-01T12:24:14.818Z,55.58
2022-12-01T12:26:41.139Z,49.60
2022-12-01T12:29:24.398Z,47.78
2022-12-01T12:32:09.144Z,54.95
2022-12-01T12:34:44.530Z,48.67
2022-12-01T12:37:19.381Z,55.42
2022-12-01T12:39:49.035Z,52.17
2022-12-01T12:42:24.671Z,50.35
2022-12-01T12:45:08.275Z,55.60
2022-12-01T12:47:42.708Z,54.58
2022-12-01T12:50:17.368Z,50.50
2022-12-01T12:52:49.790Z,49.63
2022-12-01T12:55:16.075Z,48.58
2022-12-01T12:57:48.370Z,55.78
2022-12-01T13:00:19.158Z,53.15
2022-12-01T13:02:49.087Z,49.95
2022-12-01T13:05:30.763Z,54.22
2022-12-01T13:08:02.952Z,52.00
2022-12-01T13:10:37.837Z,54.40
2022-12-01T13:13:24.462Z,53.78
2022-12-01T13:15:52.065Z,44.67
2022-12-01T13:18:37.867Z,44.85
2022-12-01T13:21:04.542Z,50.28
2022-12-01T13:23:31.024Z,46.13
2022-12-01T13:25:59.108Z,48.33
2022-12-01T13:28:28.517Z,46.10
2022-12-01T13:31:06.297Z,43.05
2022-12-01T13:33:33.809Z,50.05
2022-12-01T13:36:38.158Z,42.15
2022-12-01T13:39:00.938Z,44.15
2022-12-01T13:41:27.950Z,47.15
2022-12-01T13:44:00.317Z,42.58
2022-12-01T13:46:29.490Z,39.15
2022-12-01T13:48:57.112Z,52.10
2022-12-01T13:51:24.296Z,41.53
2022-12-01T13:53:56.430Z,46.30
2022-12-01T13:56:27.731Z,49.08
2022-12-01T13:58:54.631Z,44.83
2022-12-01T14:01:21.547Z,46.53
2022-12-01T14:03:51.280Z,42.65
2022-12-01T14:06:46.496Z,43.50
2022-12-01T14:09:15.725Z,46.75
2022-12-01T14:11:53.855Z,39.40
2022-12-01T14:14:26.019Z,45.15
2022-12-01T14:16:58.449Z,46.13
2022-12-01T14:19:27.547Z,44.97
2022-12-01T14:21:53.909Z,43.28
2022-12-01T14:24:25.205Z,43.67
2022-12-01T14:26:52.309Z,43.05
2022-12-01T14:29:26.471Z,43.83
2022-12-01T14:31:52.752Z,45.90
2022-12-01T14:34:24.076Z,42.35
2022-12-01T14:37:07.589Z,40.58
2022-12-01T14:39:35.210Z,43.30
2022-12-01T14:42:35.340Z,43.20
2022-12-01T14:45:02.319Z,37.65
2022-12-01T14:47:44.440Z,37.90
2022-12-01T14:50:13.927Z,43.50
2022-12-01T14:52:42.873Z,42.97
2022-12-01T14:55:15.706Z,39.15
2022-12-01T14:57:48.694Z,38.30
2022-12-01T15:00:15.276Z,36.90
2022-12-01T15:02:43.720Z,38.40
2022-12-01T15:05:14.662Z,38.95
2022-12-01T15:07:42.718Z,36.92
2022-12-01T15:10:19.697Z,37.30
2022-12-01T15:12:46.749Z,40.00
2022-12-01T15:15:23.588Z,41.00
2022-12-01T15:17:50.780Z,43.58
2022-12-01T15:20:33.966Z,42.95
2022-12-01T15:23:01.159Z,41.22
2022-12-01T15:25:29.536Z,36.28
2022-12-01T15:28:14.559Z,39.50
2022-12-01T15:30:42.073Z,43.77
2022-12-01T15:33:15.773Z,41.47
2022-12-01T15:35:46.967Z,42.13
2022-12-01T15:38:17.984Z,36.53
2022-12-01T15:41:28.010Z,37.80
2022-12-01T15:43:37.519Z,40.45
2022-12-01T15:46:14.379Z,38.53
2022-12-01T15:48:41.461Z,39.70
2022-12-01T15:51:16.536Z,42.28
2022-12-01T15:53:50.843Z,38.05
2022-12-01T15:56:24.595Z,40.25
2022-12-01T15:58:51.467Z,38.03
2022-12-01T16:01:18.978Z,40.33
2022-12-01T16:03:55.632Z,39.15
2022-12-01T16:06:23.688Z,39.90
2022-12-01T16:09:05.214Z,41.85
2022-12-01T16:11:32.019Z,41.40
2022-12-01T16:14:00.423Z,37.47
2022-12-01T16:16:37.097Z,39.22
2022-12-01T16:19:09.646Z,46.40
2022-12-01T16:21:48.169Z,44.95
2022-12-01T16:24:35.093Z,41.88
2022-12-01T16:27:05.593Z,38.15
2022-12-01T16:29:35.144Z,41.67
2022-12-01T16:32:20.132Z,35.63
2022-12-01T16:34:47.341Z,40.25
2022-12-01T16:37:14.335Z,38.42
2022-12-01T16:39:41.036Z,39.30
2022-12-01T16:42:10.665Z,41.22
2022-12-01T16:44:37.048Z,38.65
2022-12-01T16:47:03.445Z,45.38
2022-12-01T16:49:30.347Z,40.35
2022-12-01T16:51:57.548Z,38.53
2022-12-01T16:54:25.543Z,40.85
2022-12-01T16:56:51.818Z,41.50
2022-12-01T16:59:18.164Z,39.25
2022-12-01T17:01:44.539Z,37.58
2022-12-01T17:04:11.171Z,38.38
2022-12-01T17:06:38.431Z,40.47
2022-12-01T17:09:05.217Z,38.45
2022-12-01T17:11:32.289Z,40.10
2022-12-01T17:13:58.855Z,37.35
2022-12-01T17:16:25.150Z,40.20
2022-12-01T17:18:51.632Z,35.47
2022-12-01T17:21:18.002Z,33.80
2022-12-01T17:23:44.332Z,34.03
2022-12-01T17:26:12.897Z,39.63
2022-12-01T17:28:39.316Z,36.15
2022-12-01T17:31:07.142Z,37.50
2022-12-01T17:33:34.010Z,38.22
2022-12-01T17:36:03.506Z,41.17
2022-12-01T17:38:30.049Z,40.20
2022-12-01T17:41:00.291Z,42.65
2022-12-01T17:43:26.744Z,37.47
2022-12-01T17:45:53.148Z,41.58
2022-12-01T17:48:19.548Z,41.92
2022-12-01T17:50:45.776Z,40.55
2022-12-01T17:53:12.301Z,43.67
2022-12-01T17:55:39.363Z,44.05
2022-12-01T17:58:05.784Z,51.25
2022-12-01T18:00:32.091Z,38.75
2022-12-01T18:02:58.444Z,43.22
2022-12-01T18:05:24.964Z,45.20
2022-12-01T18:07:51.746Z,44.53
2022-12-01T18:10:18.542Z,47.10
2022-12-01T18:12:44.877Z,41.45
2022-12-01T18:15:12.445Z,41.75
2022-12-01T18:17:39.180Z,45.17
2022-12-01T18:20:06.433Z,40.15
2022-12-01T18:22:32.761Z,43.60
2022-12-01T18:24:59.069Z,39.30
2022-12-01T18:27:25.424Z,44.30
2022-12-01T18:29:51.726Z,40.55
2022-12-01T18:32:18.102Z,48.42
2022-12-01T18:34:45.245Z,48.92
2022-12-01T18:37:11.544Z,43.58
2022-12-01T18:39:37.824Z,46.40
2022-12-01T18:42:04.510Z,48.30
2022-12-01T18:44:31.053Z,48.75
2022-12-01T18:46:58.919Z,47.05
2022-12-01T18:49:25.296Z,47.38
2022-12-01T18:51:51.623Z,47.60
2022-12-01T18:54:18.036Z,53.65
2022-12-01T18:56:44.342Z,54.08
2022-12-01T18:59:11.401Z,52.38
2022-12-01T19:01:39.937Z,55.63
2022-12-01T19:04:07.693Z,53.42
2022-12-01T19:06:34.900Z,45.05
2022-12-01T19:09:01.930Z,48.45
2022-12-01T19:11:28.802Z,44.03
2022-12-01T19:13:55.391Z,41.67
2022-12-01T19:16:21.862Z,41.20
2022-12-01T19:18:48.244Z,43.40
2022-12-01T19:21:16.502Z,40.67
2022-12-01T19:23:43.983Z,44.00
2022-12-01T19:26:12.640Z,40.00
2022-12-01T19:28:40.344Z,42.72
2022-12-01T19:31:07.355Z,42.95
2022-12-01T19:33:34.089Z,46.33
2022-12-01T19:36:29.778Z,47.35
2022-12-01T19:38:57.631Z,41.40
2022-12-01T19:41:25.217Z,44.17
2022-12-01T19:43:54.743Z,40.05
2022-12-01T19:46:22.339Z,35.22
2022-12-01T19:48:52.909Z,43.63
2022-12-01T19:51:20.409Z,33.05
2022-12-01T19:53:46.847Z,37.22
2022-12-01T19:56:13.172Z,66.78
2022-12-01T19:58:39.638Z,64.63
2022-12-01T20:01:07.612Z,47.45
2022-12-01T20:03:34.033Z,37.25
2022-12-01T20:06:07.774Z,31.25
2022-12-01T20:08:36.064Z,32.22
2022-12-01T20:11:04.202Z,33.90
2022-12-01T20:13:33.759Z,30.20
2022-12-01T20:16:04.695Z,32.58
2022-12-01T20:18:31.358Z,32.03
2022-12-01T20:21:17.100Z,34.35
2022-12-01T20:23:44.121Z,30.30
2022-12-01T20:26:11.369Z,35.13
2022-12-01T20:28:38.397Z,32.35
2022-12-01T20:31:09.442Z,35.85
2022-12-01T20:33:35.748Z,37.58
2022-12-01T20:36:02.230Z,32.83
2022-12-01T20:38:28.615Z,32.63
2022-12-01T20:40:55.008Z,32.97
2022-12-01T20:43:21.269Z,38.72
2022-12-01T20:45:47.775Z,39.17
2022-12-01T20:48:14.196Z,41.97
2022-12-01T20:50:40.521Z,39.97
2022-12-01T20:53:06.906Z,43.67
2022-12-01T20:55:34.574Z,42.13
2022-12-01T20:58:02.629Z,43.00
2022-12-01T21:00:31.842Z,46.53
2022-12-01T21:02:58.129Z,44.53
2022-12-01T21:05:24.993Z,35.13
2022-12-01T21:07:51.303Z,38.95
2022-12-01T21:10:20.164Z,37.88
2022-12-01T21:13:08.050Z,39.60
2022-12-01T21:15:37.550Z,42.30
2022-12-01T21:18:05.275Z,49.08
2022-12-01T21:20:32.769Z,46.53
2022-12-01T21:23:05.771Z,43.05
2022-12-01T21:25:33.045Z,42.78
2022-12-01T21:28:03.594Z,44.38
2022-12-01T21:30:30.343Z,48.55
2022-12-01T21:33:16.682Z,47.30
2022-12-01T21:35:43.152Z,41.28
2022-12-01T21:38:11.490Z,42.17
2022-12-01T21:40:37.736Z,42.85
2022-12-01T21:43:38.042Z,40.15
2022-12-01T21:46:10.356Z,48.15
2022-12-01T21:48:37.055Z,44.05
2022-12-01T21:51:11.505Z,40.35
2022-12-01T21:53:39.112Z,41.20
2022-12-01T21:56:05.520Z,38.95
2022-12-01T21:58:35.278Z,41.15
2022-12-01T22:01:02.579Z,38.35
2022-12-01T22:03:30.567Z,48.08
2022-12-01T22:06:27.613Z,49.53
2022-12-01T22:08:46.102Z,39.60
2022-12-01T22:11:16.114Z,48.28
2022-12-01T22:13:42.884Z,49.17
2022-12-01T22:16:10.424Z,48.15
2022-12-01T22:18:37.677Z,51.55
2022-12-01T22:21:25.630Z,51.72
2022-12-01T22:24:04.524Z,56.53
2022-12-01T22:26:31.379Z,55.45
2022-12-01T22:28:58.836Z,48.97
2022-12-01T22:31:25.439Z,63.85
2022-12-01T22:34:01.514Z,59.22
2022-12-01T22:36:30.785Z,66.60
2022-12-01T22:38:57.846Z,53.83
2022-12-01T22:41:24.340Z,60.08
2022-12-01T22:43:51.601Z,66.03
2022-12-01T22:46:24.139Z,72.72
2022-12-01T22:48:50.517Z,74.25
2022-12-01T22:51:22.652Z,69.32
2022-12-01T22:53:49.319Z,74.68
2022-12-01T22:56:30.846Z,67.05
2022-12-01T22:58:57.284Z,71.07
2022-12-01T23:01:30.229Z,71.57
2022-12-01T23:04:02.400Z,69.63
2022-12-01T23:06:48.062Z,74.32
2022-12-01T23:09:14.808Z,66.85
2022-12-01T23:11:44.743Z,72.78
2022-12-01T23:14:20.241Z,71.15
2022-12-01T23:16:46.574Z,72.70
2022-12-01T23:19:13.074Z,67.68
2022-12-01T23:21:39.321Z,70.70
2022-12-01T23:24:05.964Z,71.38
2022-12-01T23:26:32.663Z,75.43
2022-12-01T23:29:00.302Z,75.93
2022-12-01T23:31:27.543Z,74.45
2022-12-01T23:33:53.932Z,72.03
2022-12-01T23:36:25.776Z,75.13
2022-12-01T23:38:53.418Z,81.38
2022-12-01T23:41:33.525Z,72.03
2022-12-01T23:44:22.886Z,76.30
2022-12-01T23:46:51.008Z,74.57
2022-12-01T23:49:20.114Z,74.38
2022-12-01T23:51:57.006Z,76.35
2022-12-01T23:54:31.402Z,77.63
2022-12-01T23:57:02.331Z,81.00
2022-12-01T23:59:29.982Z,83.78
